sensor_id;sensor_type;location;lat;lon;timestamp;P1;durP1;ratioP1;P2;durP2;ratioP2
63664;SDS011;49820;33.966;73.390;2022-08-19T00:00:51;12.88;;;8.25;;
63664;SDS011;49820;33.966;73.390;2022-08-19T00:08:34;10.70;;;8.75;;
63664;SDS011;49820;33.966;73.390;2022-08-19T00:12:46;10.80;;;8.23;;
63664;SDS011;49820;33.966;73.390;2022-08-19T00:26:07;9.95;;;8.52;;
63664;SDS011;49820;33.966;73.390;2022-08-19T00:30:29;11.20;;;8.60;;
63664;SDS011;49820;33.966;73.390;2022-08-19T00:38:49;10.45;;;8.30;;
63664;SDS011;49820;33.966;73.390;2022-08-19T00:43:36;9.52;;;7.90;;
63664;SDS011;49820;33.966;73.390;2022-08-19T00:56:56;9.97;;;8.47;;
63664;SDS011;49820;33.966;73.390;2022-08-19T01:21:05;7.65;;;6.57;;
63664;SDS011;49820;33.966;73.390;2022-08-19T01:24:40;8.35;;;6.78;;
63664;SDS011;49820;33.966;73.390;2022-08-19T01:41:53;7.72;;;4.82;;
63664;SDS011;49820;33.966;73.390;2022-08-19T01:46:12;6.57;;;4.32;;
63664;SDS011;49820;33.966;73.390;2022-08-19T01:49:48;5.90;;;4.40;;
63664;SDS011;49820;33.966;73.390;2022-08-19T02:25:36;16.33;;;14.73;;
63664;SDS011;49820;33.966;73.390;2022-08-19T02:43:02;7.05;;;6.07;;
63664;SDS011;49820;33.966;73.390;2022-08-19T02:45:43;8.93;;;8.13;;
63664;SDS011;49820;33.966;73.390;2022-08-19T02:48:52;4.50;;;4.05;;
63664;SDS011;49820;33.966;73.390;2022-08-19T02:52:07;4.22;;;3.30;;
63664;SDS011;49820;33.966;73.390;2022-08-19T02:56:49;3.55;;;3.25;;
63664;SDS011;49820;33.966;73.390;2022-08-19T03:09:58;7.50;;;6.25;;
63664;SDS011;49820;33.966;73.390;2022-08-19T03:13:06;6.70;;;5.20;;
63664;SDS011;49820;33.966;73.390;2022-08-19T03:16:04;7.90;;;5.70;;
63664;SDS011;49820;33.966;73.390;2022-08-19T03:36:17;4.65;;;4.20;;
63664;SDS011;49820;33.966;73.390;2022-08-19T03:39:30;4.47;;;4.03;;
63664;SDS011;49820;33.966;73.390;2022-08-19T03:57:13;4.20;;;3.75;;
63664;SDS011;49820;33.966;73.390;2022-08-19T04:45:00;5.80;;;5.30;;
63664;SDS011;49820;33.966;73.390;2022-08-19T04:48:25;6.13;;;5.53;;
63664;SDS011;49820;33.966;73.390;2022-08-19T04:52:11;6.07;;;5.47;;
63664;SDS011;49820;33.966;73.390;2022-08-19T05:04:30;6.23;;;5.63;;
63664;SDS011;49820;33.966;73.390;2022-08-19T05:12:46;6.40;;;5.32;;
63664;SDS011;49820;33.966;73.390;2022-08-19T05:16:34;8.35;;;5.60;;
63664;SDS011;49820;33.966;73.390;2022-08-19T05:24:21;7.20;;;6.10;;
63664;SDS011;49820;33.966;73.390;2022-08-19T05:39:56;7.30;;;6.40;;
63664;SDS011;49820;33.966;73.390;2022-08-19T05:44:06;6.50;;;5.22;;
63664;SDS011;49820;33.966;73.390;2022-08-19T05:47:54;7.07;;;6.20;;
63664;SDS011;49820;33.966;73.390;2022-08-19T06:17:06;8.45;;;6.78;;
63664;SDS011;49820;33.966;73.390;2022-08-19T06:55:32;6.75;;;5.70;;
63664;SDS011;49820;33.966;73.390;2022-08-19T06:59:52;6.68;;;5.93;;
63664;SDS011;49820;33.966;73.390;2022-08-19T07:03:41;6.13;;;5.50;;
63664;SDS011;49820;33.966;73.390;2022-08-19T07:34:53;7.53;;;6.10;;
63664;SDS011;49820;33.966;73.390;2022-08-19T07:55:48;8.52;;;6.32;;
63664;SDS011;49820;33.966;73.390;2022-08-19T08:03:58;7.78;;;6.90;;
63664;SDS011;49820;33.966;73.390;2022-08-19T08:07:47;8.57;;;7.43;;
63664;SDS011;49820;33.966;73.390;2022-08-19T08:11:44;10.15;;;7.43;;
63664;SDS011;49820;33.966;73.390;2022-08-19T08:19:51;9.80;;;7.90;;
63664;SDS011;49820;33.966;73.390;2022-08-19T08:37:24;12.57;;;10.25;;
63664;SDS011;49820;33.966;73.390;2022-08-19T08:49:31;12.98;;;10.50;;
63664;SDS011;49820;33.966;73.390;2022-08-19T08:53:19;12.17;;;10.07;;
63664;SDS011;49820;33.966;73.390;2022-08-19T09:06:25;16.45;;;14.25;;
63664;SDS011;49820;33.966;73.390;2022-08-19T09:29:29;16.02;;;13.00;;
63664;SDS011;49820;33.966;73.390;2022-08-19T12:06:58;9.13;;;7.28;;
63664;SDS011;49820;33.966;73.390;2022-08-19T12:11:04;8.30;;;6.70;;
63664;SDS011;49820;33.966;73.390;2022-08-19T12:15:19;11.00;;;7.38;;
63664;SDS011;49820;33.966;73.390;2022-08-19T12:24:00;8.80;;;6.88;;
63664;SDS011;49820;33.966;73.390;2022-08-19T13:07:28;13.13;;;10.23;;
63664;SDS011;49820;33.966;73.390;2022-08-19T13:21:01;14.15;;;9.98;;
63664;SDS011;49820;33.966;73.390;2022-08-19T13:29:02;13.83;;;10.50;;
63664;SDS011;49820;33.966;73.390;2022-08-19T13:33:15;14.48;;;11.45;;
63664;SDS011;49820;33.966;73.390;2022-08-19T14:23:38;22.67;;;13.45;;
63664;SDS011;49820;33.966;73.390;2022-08-19T14:26:27;33.47;;;13.98;;
63664;SDS011;49820;33.966;73.390;2022-08-19T14:29:24;18.75;;;14.35;;
63664;SDS011;49820;33.966;73.390;2022-08-19T14:32:03;23.75;;;14.00;;
63664;SDS011;49820;33.966;73.390;2022-08-19T14:35:00;47.93;;;16.37;;
63664;SDS011;49820;33.966;73.390;2022-08-19T14:37:32;23.52;;;14.77;;
63664;SDS011;49820;33.966;73.390;2022-08-19T14:40:23;16.60;;;12.50;;
63664;SDS011;49820;33.966;73.390;2022-08-19T14:43:29;16.65;;;13.00;;
63664;SDS011;49820;33.966;73.390;2022-08-19T14:46:34;38.50;;;13.55;;
63664;SDS011;49820;33.966;73.390;2022-08-19T14:49:39;18.63;;;12.98;;
63664;SDS011;49820;33.966;73.390;2022-08-19T14:52:33;25.00;;;13.95;;
63664;SDS011;49820;33.966;73.390;2022-08-19T14:55:04;15.55;;;12.82;;
63664;SDS011;49820;33.966;73.390;2022-08-19T14:57:52;19.52;;;12.18;;
63664;SDS011;49820;33.966;73.390;2022-08-19T15:00:51;29.27;;;14.03;;
63664;SDS011;49820;33.966;73.390;2022-08-19T15:03:41;16.88;;;13.65;;
63664;SDS011;49820;33.966;73.390;2022-08-19T15:06:32;15.20;;;12.82;;
63664;SDS011;49820;33.966;73.390;2022-08-19T15:09:37;19.30;;;13.38;;
63664;SDS011;49820;33.966;73.390;2022-08-19T15:12:28;30.05;;;13.50;;
63664;SDS011;49820;33.966;73.390;2022-08-19T15:19:03;53.50;;;15.15;;
63664;SDS011;49820;33.966;73.390;2022-08-19T15:22:17;31.55;;;13.77;;
63664;SDS011;49820;33.966;73.390;2022-08-19T15:25:24;38.72;;;15.48;;
63664;SDS011;49820;33.966;73.390;2022-08-19T15:28:29;28.48;;;14.40;;
63664;SDS011;49820;33.966;73.390;2022-08-19T15:31:19;42.42;;;15.55;;
63664;SDS011;49820;33.966;73.390;2022-08-19T15:34:30;59.35;;;18.65;;
63664;SDS011;49820;33.966;73.390;2022-08-19T15:37:34;61.42;;;16.33;;
63664;SDS011;49820;33.966;73.390;2022-08-19T15:40:05;59.97;;;15.30;;
63664;SDS011;49820;33.966;73.390;2022-08-19T15:43:35;82.10;;;18.17;;
63664;SDS011;49820;33.966;73.390;2022-08-19T15:46:49;81.15;;;16.50;;
63664;SDS011;49820;33.966;73.390;2022-08-19T15:49:54;66.53;;;14.63;;
63664;SDS011;49820;33.966;73.390;2022-08-19T15:53:00;135.98;;;19.40;;
63664;SDS011;49820;33.966;73.390;2022-08-19T15:56:09;85.05;;;16.13;;
63664;SDS011;49820;33.966;73.390;2022-08-19T15:59:14;105.63;;;16.37;;
63664;SDS011;49820;33.966;73.390;2022-08-19T16:02:18;23.52;;;11.93;;
63664;SDS011;49820;33.966;73.390;2022-08-19T16:05:26;56.15;;;13.27;;
63664;SDS011;49820;33.966;73.390;2022-08-19T16:08:50;74.28;;;15.90;;
63664;SDS011;49820;33.966;73.390;2022-08-19T16:11:42;114.20;;;16.38;;
63664;SDS011;49820;33.966;73.390;2022-08-19T16:14:48;57.85;;;16.63;;
63664;SDS011;49820;33.966;73.390;2022-08-19T16:17:52;65.10;;;14.88;;
63664;SDS011;49820;33.966;73.390;2022-08-19T16:20:51;50.10;;;13.98;;
63664;SDS011;49820;33.966;73.390;2022-08-19T16:23:24;33.30;;;11.77;;
63664;SDS011;49820;33.966;73.390;2022-08-19T16:26:13;32.85;;;12.48;;
63664;SDS011;49820;33.966;73.390;2022-08-19T16:29:20;45.07;;;13.10;;
63664;SDS011;49820;33.966;73.390;2022-08-19T16:32:25;73.07;;;14.95;;
63664;SDS011;49820;33.966;73.390;2022-08-19T16:35:14;25.85;;;12.05;;
63664;SDS011;49820;33.966;73.390;2022-08-19T16:38:01;29.75;;;11.68;;
63664;SDS011;49820;33.966;73.390;2022-08-19T16:40:51;21.45;;;11.95;;
63664;SDS011;49820;33.966;73.390;2022-08-19T16:43:56;20.85;;;13.00;;
63664;SDS011;49820;33.966;73.390;2022-08-19T16:47:02;22.23;;;12.27;;
63664;SDS011;49820;33.966;73.390;2022-08-19T16:50:06;13.10;;;11.50;;
63664;SDS011;49820;33.966;73.390;2022-08-19T16:53:11;12.93;;;11.55;;
63664;SDS011;49820;33.966;73.390;2022-08-19T16:56:01;13.60;;;12.10;;
63664;SDS011;49820;33.966;73.390;2022-08-19T16:59:06;13.15;;;10.95;;
63664;SDS011;49820;33.966;73.390;2022-08-19T17:05:00;12.03;;;10.73;;
63664;SDS011;49820;33.966;73.390;2022-08-19T17:08:04;14.55;;;10.80;;
63664;SDS011;49820;33.966;73.390;2022-08-19T17:11:27;13.02;;;10.15;;
63664;SDS011;49820;33.966;73.390;2022-08-19T17:14:20;12.83;;;10.10;;
63664;SDS011;49820;33.966;73.390;2022-08-19T17:17:08;12.43;;;9.45;;
63664;SDS011;49820;33.966;73.390;2022-08-19T17:20:14;13.20;;;10.02;;
63664;SDS011;49820;33.966;73.390;2022-08-19T17:23:05;13.27;;;10.25;;
63664;SDS011;49820;33.966;73.390;2022-08-19T17:26:06;12.20;;;9.27;;
63664;SDS011;49820;33.966;73.390;2022-08-19T17:29:11;13.67;;;10.07;;
63664;SDS011;49820;33.966;73.390;2022-08-19T17:32:02;12.07;;;10.30;;
63664;SDS011;49820;33.966;73.390;2022-08-19T17:34:52;12.20;;;10.25;;
63664;SDS011;49820;33.966;73.390;2022-08-19T17:37:56;13.67;;;9.93;;
63664;SDS011;49820;33.966;73.390;2022-08-19T17:40:45;13.70;;;9.60;;
63664;SDS011;49820;33.966;73.390;2022-08-19T17:43:33;11.52;;;9.32;;
63664;SDS011;49820;33.966;73.390;2022-08-19T17:46:10;11.00;;;9.37;;
63664;SDS011;49820;33.966;73.390;2022-08-19T17:49:06;11.05;;;8.98;;
63664;SDS011;49820;33.966;73.390;2022-08-19T17:51:56;10.93;;;8.70;;
63664;SDS011;49820;33.966;73.390;2022-08-19T17:55:02;11.10;;;8.45;;
63664;SDS011;49820;33.966;73.390;2022-08-19T17:57:53;10.77;;;8.18;;
63664;SDS011;49820;33.966;73.390;2022-08-19T18:00:57;10.05;;;8.52;;
63664;SDS011;49820;33.966;73.390;2022-08-19T18:03:49;9.82;;;7.57;;
63664;SDS011;49820;33.966;73.390;2022-08-19T18:06:38;9.70;;;7.67;;
63664;SDS011;49820;33.966;73.390;2022-08-19T18:09:38;16.60;;;8.45;;
63664;SDS011;49820;33.966;73.390;2022-08-19T18:12:43;11.60;;;8.40;;
63664;SDS011;49820;33.966;73.390;2022-08-19T18:15:48;9.57;;;7.55;;
63664;SDS011;49820;33.966;73.390;2022-08-19T18:18:37;11.90;;;8.10;;
63664;SDS011;49820;33.966;73.390;2022-08-19T18:21:25;10.07;;;8.27;;
63664;SDS011;49820;33.966;73.390;2022-08-19T18:24:36;10.93;;;8.55;;
63664;SDS011;49820;33.966;73.390;2022-08-19T18:27:30;11.85;;;8.73;;
63664;SDS011;49820;33.966;73.390;2022-08-19T18:30:37;14.95;;;9.38;;
63664;SDS011;49820;33.966;73.390;2022-08-19T18:33:41;11.98;;;8.07;;
63664;SDS011;49820;33.966;73.390;2022-08-19T18:36:41;10.82;;;8.30;;
63664;SDS011;49820;33.966;73.390;2022-08-19T18:39:45;10.10;;;7.90;;
63664;SDS011;49820;33.966;73.390;2022-08-19T18:42:52;10.50;;;7.43;;
63664;SDS011;49820;33.966;73.390;2022-08-19T18:46:16;8.95;;;6.60;;
63664;SDS011;49820;33.966;73.390;2022-08-19T18:49:40;8.73;;;6.30;;
63664;SDS011;49820;33.966;73.390;2022-08-19T18:52:30;7.75;;;5.68;;
63664;SDS011;49820;33.966;73.390;2022-08-19T18:55:53;9.02;;;5.57;;
63664;SDS011;49820;33.966;73.390;2022-08-19T18:59:25;11.20;;;6.40;;
63664;SDS011;49820;33.966;73.390;2022-08-19T19:02:49;7.78;;;5.88;;
63664;SDS011;49820;33.966;73.390;2022-08-19T19:06:17;8.35;;;6.50;;
63664;SDS011;49820;33.966;73.390;2022-08-19T19:09:16;10.30;;;6.85;;
63664;SDS011;49820;33.966;73.390;2022-08-19T19:12:23;9.15;;;6.78;;
63664;SDS011;49820;33.966;73.390;2022-08-19T19:14:57;8.97;;;7.10;;
63664;SDS011;49820;33.966;73.390;2022-08-19T19:17:46;9.85;;;7.53;;
63664;SDS011;49820;33.966;73.390;2022-08-19T19:24:00;9.98;;;6.60;;
63664;SDS011;49820;33.966;73.390;2022-08-19T19:26:49;9.68;;;7.70;;
63664;SDS011;49820;33.966;73.390;2022-08-19T19:29:55;10.38;;;8.38;;
63664;SDS011;49820;33.966;73.390;2022-08-19T19:32:59;11.17;;;9.20;;
63664;SDS011;49820;33.966;73.390;2022-08-19T19:36:04;11.20;;;8.53;;
63664;SDS011;49820;33.966;73.390;2022-08-19T19:39:08;15.13;;;9.30;;
63664;SDS011;49820;33.966;73.390;2022-08-19T19:42:14;11.07;;;8.43;;
63664;SDS011;49820;33.966;73.390;2022-08-19T19:45:22;12.25;;;8.20;;
63664;SDS011;49820;33.966;73.390;2022-08-19T19:48:26;11.57;;;7.68;;
63664;SDS011;49820;33.966;73.390;2022-08-19T19:51:31;9.68;;;7.60;;
63664;SDS011;49820;33.966;73.390;2022-08-19T19:54:22;13.23;;;8.70;;
63664;SDS011;49820;33.966;73.390;2022-08-19T19:57:10;11.88;;;9.10;;
63664;SDS011;49820;33.966;73.390;2022-08-19T20:00:15;11.20;;;9.35;;
63664;SDS011;49820;33.966;73.390;2022-08-19T20:03:21;11.67;;;8.97;;
63664;SDS011;49820;33.966;73.390;2022-08-19T20:06:25;10.40;;;8.07;;
63664;SDS011;49820;33.966;73.390;2022-08-19T20:09:31;10.70;;;8.30;;
63664;SDS011;49820;33.966;73.390;2022-08-19T20:12:35;8.52;;;6.88;;
63664;SDS011;49820;33.966;73.390;2022-08-19T20:15:41;9.20;;;7.57;;
63664;SDS011;49820;33.966;73.390;2022-08-19T20:18:30;11.93;;;8.30;;
63664;SDS011;49820;33.966;73.390;2022-08-19T20:21:34;10.68;;;8.63;;
63664;SDS011;49820;33.966;73.390;2022-08-19T20:24:35;12.47;;;9.43;;
63664;SDS011;49820;33.966;73.390;2022-08-19T20:27:25;12.25;;;9.68;;
63664;SDS011;49820;33.966;73.390;2022-08-19T20:30:30;13.90;;;8.90;;
63664;SDS011;49820;33.966;73.390;2022-08-19T20:33:01;11.27;;;8.43;;
63664;SDS011;49820;33.966;73.390;2022-08-19T20:35:53;11.32;;;7.82;;
63664;SDS011;49820;33.966;73.390;2022-08-19T20:38:57;10.80;;;7.97;;
63664;SDS011;49820;33.966;73.390;2022-08-19T20:42:02;14.70;;;8.27;;
63664;SDS011;49820;33.966;73.390;2022-08-19T20:45:07;10.15;;;7.82;;
63664;SDS011;49820;33.966;73.390;2022-08-19T20:48:14;8.90;;;7.35;;
63664;SDS011;49820;33.966;73.390;2022-08-19T20:51:19;9.18;;;8.25;;
63664;SDS011;49820;33.966;73.390;2022-08-19T20:53:51;9.93;;;8.63;;
63664;SDS011;49820;33.966;73.390;2022-08-19T20:56:56;10.02;;;8.23;;
63664;SDS011;49820;33.966;73.390;2022-08-19T20:59:51;9.68;;;7.75;;
63664;SDS011;49820;33.966;73.390;2022-08-19T21:02:55;10.05;;;7.18;;
63664;SDS011;49820;33.966;73.390;2022-08-19T21:05:59;7.53;;;6.53;;
63664;SDS011;49820;33.966;73.390;2022-08-19T21:09:04;7.68;;;6.22;;
63664;SDS011;49820;33.966;73.390;2022-08-19T21:12:10;10.20;;;6.32;;
63664;SDS011;49820;33.966;73.390;2022-08-19T21:15:21;10.10;;;7.17;;
63664;SDS011;49820;33.966;73.390;2022-08-19T21:18:26;7.20;;;6.05;;
63664;SDS011;49820;33.966;73.390;2022-08-19T21:21:31;8.07;;;6.32;;
63664;SDS011;49820;33.966;73.390;2022-08-19T21:27:45;7.28;;;6.57;;
63664;SDS011;49820;33.966;73.390;2022-08-19T21:30:33;8.83;;;6.83;;
63664;SDS011;49820;33.966;73.390;2022-08-19T21:33:04;9.07;;;7.20;;
63664;SDS011;49820;33.966;73.390;2022-08-19T21:36:08;9.07;;;7.05;;
63664;SDS011;49820;33.966;73.390;2022-08-19T21:38:57;9.13;;;7.15;;
63664;SDS011;49820;33.966;73.390;2022-08-19T21:42:01;9.38;;;7.28;;
63664;SDS011;49820;33.966;73.390;2022-08-19T21:45:06;8.27;;;7.47;;
63664;SDS011;49820;33.966;73.390;2022-08-19T21:48:10;7.95;;;7.15;;
63664;SDS011;49820;33.966;73.390;2022-08-19T21:51:16;8.85;;;7.20;;
63664;SDS011;49820;33.966;73.390;2022-08-19T21:54:20;11.18;;;7.93;;
63664;SDS011;49820;33.966;73.390;2022-08-19T21:57:25;11.68;;;7.47;;
63664;SDS011;49820;33.966;73.390;2022-08-19T22:00:30;9.30;;;7.60;;
63664;SDS011;49820;33.966;73.390;2022-08-19T22:03:20;9.88;;;7.65;;
63664;SDS011;49820;33.966;73.390;2022-08-19T22:06:25;9.45;;;7.90;;
63664;SDS011;49820;33.966;73.390;2022-08-19T22:09:29;9.27;;;8.02;;
63664;SDS011;49820;33.966;73.390;2022-08-19T22:12:34;9.38;;;8.23;;
63664;SDS011;49820;33.966;73.390;2022-08-19T22:15:41;12.73;;;9.68;;
63664;SDS011;49820;33.966;73.390;2022-08-19T22:18:46;12.70;;;10.60;;
63664;SDS011;49820;33.966;73.390;2022-08-19T22:21:34;13.25;;;10.93;;
63664;SDS011;49820;33.966;73.390;2022-08-19T22:24:39;12.35;;;10.43;;
63664;SDS011;49820;33.966;73.390;2022-08-19T22:27:43;11.50;;;10.05;;
63664;SDS011;49820;33.966;73.390;2022-08-19T22:30:15;11.23;;;9.60;;
63664;SDS011;49820;33.966;73.390;2022-08-19T22:33:06;10.85;;;9.70;;
63664;SDS011;49820;33.966;73.390;2022-08-19T22:36:15;12.38;;;10.75;;
63664;SDS011;49820;33.966;73.390;2022-08-19T22:39:38;14.88;;;10.98;;
63664;SDS011;49820;33.966;73.390;2022-08-19T22:42:24;16.25;;;12.43;;
63664;SDS011;49820;33.966;73.390;2022-08-19T22:45:29;13.30;;;11.52;;
63664;SDS011;49820;33.966;73.390;2022-08-19T22:48:35;13.63;;;10.80;;
63664;SDS011;49820;33.966;73.390;2022-08-19T22:51:40;13.55;;;11.38;;
63664;SDS011;49820;33.966;73.390;2022-08-19T22:54:47;13.85;;;11.10;;
63664;SDS011;49820;33.966;73.390;2022-08-19T22:57:53;14.05;;;11.05;;
63664;SDS011;49820;33.966;73.390;2022-08-19T23:00:40;12.65;;;11.25;;
63664;SDS011;49820;33.966;73.390;2022-08-19T23:03:10;12.98;;;9.93;;
63664;SDS011;49820;33.966;73.390;2022-08-19T23:06:15;11.88;;;10.15;;
63664;SDS011;49820;33.966;73.390;2022-08-19T23:09:04;12.23;;;10.13;;
63664;SDS011;49820;33.966;73.390;2022-08-19T23:11:43;12.75;;;10.30;;
63664;SDS011;49820;33.966;73.390;2022-08-19T23:14:32;11.43;;;10.17;;
63664;SDS011;49820;33.966;73.390;2022-08-19T23:17:39;13.98;;;10.25;;
63664;SDS011;49820;33.966;73.390;2022-08-19T23:20:51;11.02;;;9.65;;
63664;SDS011;49820;33.966;73.390;2022-08-19T23:23:40;9.93;;;8.93;;
63664;SDS011;49820;33.966;73.390;2022-08-19T23:26:45;10.40;;;9.10;;
63664;SDS011;49820;33.966;73.390;2022-08-19T23:29:50;8.50;;;7.50;;
63664;SDS011;49820;33.966;73.390;2022-08-19T23:33:16;9.60;;;7.47;;
